Elon, NC

16:20 EDT le 23 septembre 2014 (GMT -0400)
Burlington-Alamance Regional | Change Station
CLOSE
Current Station
Aéroport
Location: Burlington,
Altitude: 617 ft
Stations météo à proximité

Alt. 617 ft 36.05 °N, 79.47 °W | Updated 26 minutes ago

Couvert
Couvert
59 ° F
Paraît 59 ° F
N
7
Vent Variable Vent de Nord

Aujourd'hui
Haut(e) -- | Bas -- ° F
--% Risque de précip.
Hier
Haut(e) -- | Bas -- ° F
Precip. -- pouce
7:06 AM 7:13 PM
Lune descendante, 0% visible
Pression 30.31 pouce
Visibilité 10.0 Miles terrestres
Nuages Couvert 11000 ft
Point de rosée 48 ° F
Humidité 67%
Précipitations 0.00 pouce
Profondeur de la couche neigeuse Non disponible.
UV 1 sur 12
Pollen 6.10 sur 12
Ozone Bon
PM2.5 Bon
Flu Activity Non disponible.
METAR KBUY 231954Z AUTO 01006KT 10SM OVC110 15/09 A3031 RMK AO2 SLP263 T01500089

More Conditions Fewer Conditions

Pression 30.31 pouce
Visibilité 10.0 Miles terrestres
Nuages Couvert 11000 ft
Point de rosée 48 ° F
Humidité 67%
Précipitations 0.00 pouce
Profondeur de la couche neigeuse Non disponible.
UV 1 sur 12
Pollen 6.10 sur 12
Ozone Bon
PM2.5 Bon
Flu Activity Non disponible.
METAR KBUY 231954Z AUTO 01006KT 10SM OVC110 15/09 A3031 RMK AO2 SLP263 T01500089

More Conditions Fewer Conditions

10-Day Weather Forecast

Almanac

Astronomie

Sep. 23, 2014 Lever Coucher
Temps réel 07:06 EDT 19:13 EDT
Crépuscule civil 06:41 EDT 19:39 EDT
Crépuscule nautique 06:11 EDT 20:08 EDT
Crépuscule astronomique 05:40 EDT 20:39 EDT
Lune 06:29 EDT 18:51 EDT
Durée de lumière visible 12h 57m
Longueur du jour
12h 06m
Tomorrow will be 2m 16s shorter.
Lune descendante, 0% of the Moon is Illuminated
Aujourd'hui
Lune descendante
Sep 24
Nouveau
Oct 1
Premier quartier
Oct 8
Pleine lune
Oct 15
Dernier quartier

Extrêmes aujourd'hui

State Highs State Lows

Community

WunderPhotos

Upload Photos

1,755,786 Photos téléchargées !

WunderBlogs® & News

By Dr. Jeff Masters
Director of Meteorology, Weather Underground
By Kari Strenfel
Meteorologist, Weather Underground
By Christopher C. Burt
Weather Historian, Weather Underground
September 23, 2014
September 23, 2014
September 23, 2014

Nearby

Qualité de l'air

  Qualité de l'air Indice de la qualité de l'air Polluant
Hier Bon
OZONE
Hier Bon
PM2.5
Actuel Bon
PM2.5
Actuel Bon
OZONE
mardi Bon
PM2.5
mardi Bon
OZONE
mercredi Bon
PM2.5
mercredi Bon
OZONE
jeudi Bon
PM2.5
jeudi Bon
OZONE
vendredi Bon
PM2.5
vendredi Bon
OZONE

Épaisseur de neige

Station Depth Altitude
Pas de nouvelles chutes de neige

Activité sismique

Ville Distance Mag. Time & Date
No recent earthquake activity has been reported nearby.
Minimum magnitude displayed is 2.5.

Températures des eaux côtières

Lieu Température
Aucun rapport de station

Stations météo à proximité